createdAt,value
2022-10-04T00:00:04.733Z,64.22
2022-10-04T00:00:41.446Z,65.82
2022-10-04T00:01:14.594Z,65.05
2022-10-04T00:01:48.903Z,65.20
2022-10-04T00:02:23.711Z,66.28
2022-10-04T00:03:00.425Z,63.63
2022-10-04T00:03:34.123Z,63.47
2022-10-04T00:04:08.113Z,63.88
2022-10-04T00:04:43.179Z,64.00
2022-10-04T00:05:16.199Z,64.07
2022-10-04T00:05:49.065Z,65.20
2022-10-04T00:06:23.127Z,65.03
2022-10-04T00:06:59.747Z,66.20
2022-10-04T00:07:34.370Z,64.63
2022-10-04T00:08:22.330Z,65.60
2022-10-04T00:08:56.329Z,65.50
2022-10-04T00:09:32.148Z,65.70
2022-10-04T00:10:08.205Z,64.10
2022-10-04T00:10:39.920Z,64.18
2022-10-04T00:11:17.036Z,65.97
2022-10-04T00:11:50.290Z,64.30
2022-10-04T00:12:24.434Z,65.70
2022-10-04T00:12:57.578Z,62.95
2022-10-04T00:13:29.458Z,63.92
2022-10-04T00:14:03.217Z,63.83
2022-10-04T00:14:36.500Z,65.05
2022-10-04T00:15:17.857Z,63.80
2022-10-04T00:15:51.339Z,64.32
2022-10-04T00:16:26.324Z,65.10
2022-10-04T00:16:59.608Z,63.95
2022-10-04T00:17:35.634Z,64.32
2022-10-04T00:18:18.551Z,63.67
2022-10-04T00:19:00.178Z,64.25
2022-10-04T00:19:41.971Z,63.65
2022-10-04T00:20:28.501Z,65.53
2022-10-04T00:21:05.224Z,64.10
2022-10-04T00:21:56.290Z,64.28
2022-10-04T00:22:29.601Z,63.53
2022-10-04T00:23:19.736Z,64.82
2022-10-04T00:24:09.063Z,64.88
2022-10-04T00:24:57.092Z,65.10
2022-10-04T00:25:36.599Z,64.43
2022-10-04T00:26:14.109Z,63.55
2022-10-04T00:27:10.154Z,63.92
2022-10-04T00:28:04.039Z,64.03
2022-10-04T00:28:46.598Z,64.70
2022-10-04T00:29:33.222Z,65.47
2022-10-04T00:30:15.890Z,66.70
2022-10-04T00:31:07.658Z,65.47
2022-10-04T00:31:54.410Z,64.97
2022-10-04T00:32:29.306Z,64.88
2022-10-04T00:33:01.924Z,63.85
2022-10-04T00:33:35.655Z,65.00
2022-10-04T00:34:30.083Z,64.60
2022-10-04T00:35:01.987Z,65.53
2022-10-04T00:35:47.375Z,63.50
2022-10-04T00:36:33.451Z,64.28
2022-10-04T00:37:13.316Z,63.17
2022-10-04T00:37:57.234Z,64.90
2022-10-04T00:38:29.191Z,64.72
2022-10-04T00:39:12.089Z,66.63
2022-10-04T00:39:45.526Z,64.35
2022-10-04T00:40:19.271Z,64.65
2022-10-04T00:40:55.322Z,64.60
2022-10-04T00:41:28.268Z,64.85
2022-10-04T00:42:04.218Z,64.68
2022-10-04T00:42:47.049Z,65.45
2022-10-04T00:43:21.131Z,65.32
2022-10-04T00:43:53.575Z,64.18
2022-10-04T00:44:29.486Z,64.97
2022-10-04T00:45:02.756Z,64.15
2022-10-04T00:45:37.608Z,63.92
2022-10-04T00:46:12.534Z,63.67
2022-10-04T00:46:44.652Z,66.00
2022-10-04T00:47:22.359Z,65.55
2022-10-04T00:48:21.687Z,65.78
2022-10-04T00:48:55.811Z,63.78
2022-10-04T00:49:30.960Z,65.50
2022-10-04T00:50:07.411Z,64.47
2022-10-04T00:50:43.895Z,63.47
2022-10-04T00:51:20.832Z,65.05
2022-10-04T00:51:54.899Z,66.25
2022-10-04T00:52:27.640Z,65.40
2022-10-04T00:53:00.651Z,64.47
2022-10-04T00:53:46.927Z,64.65
2022-10-04T00:54:20.374Z,65.50
2022-10-04T00:54:54.255Z,65.63
2022-10-04T00:55:34.575Z,64.72
2022-10-04T00:56:12.163Z,65.22
2022-10-04T00:56:46.580Z,64.07
2022-10-04T00:57:21.763Z,65.38
2022-10-04T00:57:58.434Z,65.93
2022-10-04T00:58:33.129Z,64.95
2022-10-04T00:59:26.333Z,64.18
2022-10-04T00:59:59.222Z,65.45
2022-10-04T01:00:33.392Z,64.65
2022-10-04T01:01:06.349Z,66.88
2022-10-04T01:01:39.235Z,65.38
2022-10-04T01:02:15.696Z,65.25
2022-10-04T01:02:53.025Z,65.72
2022-10-04T01:03:28.088Z,66.03
2022-10-04T01:04:01.549Z,65.40
2022-10-04T01:04:39.902Z,66.55
2022-10-04T01:05:15.355Z,63.90
2022-10-04T01:05:49.410Z,65.93
2022-10-04T01:06:22.679Z,64.82
2022-10-04T01:06:54.967Z,66.78
2022-10-04T01:07:28.793Z,64.97
2022-10-04T01:08:05.542Z,64.28
2022-10-04T01:08:39.710Z,65.63
2022-10-04T01:09:12.182Z,65.82
2022-10-04T01:09:48.109Z,64.55
2022-10-04T01:10:21.600Z,64.88
2022-10-04T01:10:55.816Z,67.40
2022-10-04T01:11:32.196Z,65.63
2022-10-04T01:12:06.990Z,66.05
2022-10-04T01:12:45.312Z,65.40
2022-10-04T01:13:20.348Z,65.60
2022-10-04T01:13:53.861Z,65.13
2022-10-04T01:14:29.453Z,65.35
2022-10-04T01:15:05.920Z,65.47
2022-10-04T01:15:42.871Z,67.90
2022-10-04T01:16:17.567Z,66.22
2022-10-04T01:16:51.462Z,65.47
2022-10-04T01:17:23.061Z,64.85
2022-10-04T01:18:09.555Z,64.85
2022-10-04T01:18:41.469Z,65.93
2022-10-04T01:19:26.028Z,65.70
2022-10-04T01:19:58.633Z,65.45
2022-10-04T01:20:33.012Z,64.63
2022-10-04T01:21:05.501Z,63.92
2022-10-04T01:21:39.863Z,64.75
2022-10-04T01:22:14.177Z,65.50
2022-10-04T01:22:50.385Z,64.33
2022-10-04T01:23:40.617Z,64.25
2022-10-04T01:24:21.216Z,65.38
2022-10-04T01:24:53.820Z,64.80
2022-10-04T01:25:40.392Z,65.55
2022-10-04T01:26:32.359Z,64.75
2022-10-04T01:27:04.604Z,65.00
2022-10-04T01:27:41.449Z,65.88
2022-10-04T01:28:13.728Z,64.38
2022-10-04T01:28:45.675Z,64.53
2022-10-04T01:29:26.155Z,65.88
2022-10-04T01:29:58.972Z,66.28
2022-10-04T01:30:30.611Z,65.07
2022-10-04T01:31:03.317Z,64.85
2022-10-04T01:31:36.631Z,66.53
2022-10-04T01:32:08.330Z,64.28
2022-10-04T01:32:41.212Z,65.20
2022-10-04T01:33:12.962Z,64.68
2022-10-04T01:33:44.662Z,64.85
2022-10-04T01:34:19.408Z,65.93
2022-10-04T01:34:51.153Z,63.92
2022-10-04T01:35:22.959Z,64.35
2022-10-04T01:35:55.578Z,64.50
2022-10-04T01:36:27.841Z,64.25
2022-10-04T01:37:00.229Z,65.53
2022-10-04T01:37:32.912Z,65.25
2022-10-04T01:38:07.254Z,65.18
2022-10-04T01:38:38.972Z,65.07
2022-10-04T01:39:12.011Z,66.18
2022-10-04T01:39:44.628Z,66.13
2022-10-04T01:40:16.871Z,65.93
2022-10-04T01:40:52.310Z,63.92
2022-10-04T01:41:25.596Z,65.05
2022-10-04T01:42:01.037Z,63.90
2022-10-04T01:42:36.027Z,65.05
2022-10-04T01:43:10.210Z,65.97
2022-10-04T01:43:43.322Z,63.97
2022-10-04T01:44:20.161Z,65.28
2022-10-04T01:44:55.377Z,64.55
2022-10-04T01:45:30.495Z,64.85
2022-10-04T01:46:04.813Z,63.58
2022-10-04T01:46:38.266Z,66.72
2022-10-04T01:47:14.159Z,64.93
2022-10-04T01:47:48.770Z,64.72
2022-10-04T01:48:23.525Z,64.45
2022-10-04T01:48:56.933Z,63.80
2022-10-04T01:49:30.638Z,63.90
2022-10-04T01:50:07.622Z,63.50
2022-10-04T01:50:41.356Z,64.97
2022-10-04T01:51:14.952Z,65.78
2022-10-04T01:51:51.491Z,65.45
2022-10-04T01:52:25.215Z,65.63
2022-10-04T01:53:01.399Z,65.38
2022-10-04T01:53:36.476Z,64.28
2022-10-04T01:54:09.647Z,63.65
2022-10-04T01:54:43.666Z,66.13
2022-10-04T01:55:17.134Z,64.85
2022-10-04T01:55:50.922Z,63.38
2022-10-04T01:56:28.801Z,64.30
2022-10-04T01:57:02.608Z,65.13
2022-10-04T01:57:35.390Z,64.90
2022-10-04T01:58:10.426Z,65.38
2022-10-04T01:58:43.671Z,63.63
2022-10-04T01:59:18.212Z,65.18
2022-10-04T01:59:52.392Z,65.63
2022-10-04T02:00:24.417Z,64.45
2022-10-04T02:00:57.892Z,65.68
2022-10-04T02:01:33.012Z,65.30
2022-10-04T02:02:07.044Z,63.53
2022-10-04T02:02:40.946Z,65.25
2022-10-04T02:03:17.532Z,64.55
2022-10-04T02:03:52.528Z,65.68
2022-10-04T02:04:27.911Z,63.58
2022-10-04T02:05:01.195Z,63.65
2022-10-04T02:05:35.068Z,63.83
2022-10-04T02:06:08.416Z,64.35
2022-10-04T02:06:42.107Z,64.20
2022-10-04T02:07:15.024Z,64.22
2022-10-04T02:07:48.176Z,63.92
2022-10-04T02:08:25.067Z,63.60
2022-10-04T02:08:58.436Z,65.32
2022-10-04T02:09:32.220Z,64.13
2022-10-04T02:10:07.514Z,63.75
2022-10-04T02:10:43.478Z,65.50
2022-10-04T02:11:17.236Z,64.80
2022-10-04T02:11:53.106Z,65.72
2022-10-04T02:12:25.084Z,65.05
2022-10-04T02:12:57.166Z,64.72
2022-10-04T02:13:34.149Z,65.40
2022-10-04T02:14:12.811Z,65.13
2022-10-04T02:14:45.520Z,65.35
2022-10-04T02:15:20.041Z,65.18
2022-10-04T02:15:51.852Z,64.95
2022-10-04T02:16:24.751Z,65.57
2022-10-04T02:16:58.097Z,65.35
2022-10-04T02:17:31.508Z,66.57
2022-10-04T02:18:06.628Z,63.95
2022-10-04T02:18:41.805Z,64.88
2022-10-04T02:19:14.417Z,66.88
2022-10-04T02:19:46.217Z,65.90
2022-10-04T02:20:21.361Z,66.17
2022-10-04T02:20:54.260Z,64.07
2022-10-04T02:21:25.932Z,67.07
2022-10-04T02:21:59.203Z,65.15
2022-10-04T02:22:31.046Z,65.40
2022-10-04T02:23:03.085Z,64.85
2022-10-04T02:23:36.452Z,65.78
2022-10-04T02:24:09.804Z,65.43
2022-10-04T02:24:42.843Z,65.53
2022-10-04T02:25:17.149Z,66.93
2022-10-04T02:25:48.777Z,66.95
2022-10-04T02:26:21.399Z,64.70
2022-10-04T02:26:54.452Z,66.47
2022-10-04T02:27:27.085Z,66.13
2022-10-04T02:27:58.751Z,66.43
2022-10-04T02:28:33.233Z,65.63
2022-10-04T02:29:04.994Z,65.72
2022-10-04T02:29:36.782Z,67.63
2022-10-04T02:30:10.617Z,64.97
2022-10-04T02:30:44.096Z,67.88
2022-10-04T02:31:38.522Z,64.47
2022-10-04T02:32:29.511Z,66.35
2022-10-04T02:33:01.456Z,65.82
2022-10-04T02:33:36.081Z,65.38
2022-10-04T02:34:08.122Z,66.40
2022-10-04T02:34:41.787Z,68.97
2022-10-04T02:35:13.982Z,66.97
2022-10-04T02:35:46.922Z,64.45
2022-10-04T02:36:20.714Z,65.90
2022-10-04T02:36:52.756Z,66.55
2022-10-04T02:37:26.032Z,66.90
2022-10-04T02:38:02.577Z,65.82
2022-10-04T02:38:36.012Z,66.82
2022-10-04T02:39:10.873Z,65.88
2022-10-04T02:39:45.274Z,67.35
2022-10-04T02:40:18.580Z,65.75
2022-10-04T02:40:57.116Z,65.82
2022-10-04T02:41:32.814Z,65.22
2022-10-04T02:42:09.355Z,65.68
2022-10-04T02:42:44.435Z,66.15
2022-10-04T02:43:19.101Z,65.95
2022-10-04T02:43:53.780Z,65.60
2022-10-04T02:44:28.482Z,66.35
2022-10-04T02:45:03.558Z,66.40
2022-10-04T02:45:41.701Z,65.60
2022-10-04T02:46:15.169Z,65.50
2022-10-04T02:46:51.403Z,64.97
2022-10-04T02:47:24.912Z,66.07
2022-10-04T02:47:58.749Z,66.47
2022-10-04T02:48:34.641Z,64.80
2022-10-04T02:49:07.384Z,64.85
2022-10-04T02:49:42.000Z,66.43
2022-10-04T02:50:21.635Z,66.40
2022-10-04T02:50:54.275Z,67.32
2022-10-04T02:51:29.328Z,66.43
2022-10-04T02:52:02.344Z,65.97
2022-10-04T02:52:37.193Z,67.97
2022-10-04T02:53:13.179Z,65.55
2022-10-04T02:53:49.292Z,66.53
2022-10-04T02:54:29.745Z,65.95
2022-10-04T02:55:04.059Z,67.18
2022-10-04T02:55:36.144Z,66.82
2022-10-04T02:56:09.410Z,67.35
2022-10-04T02:56:43.118Z,66.75
2022-10-04T02:57:16.149Z,66.50
2022-10-04T02:57:49.884Z,66.10
2022-10-04T02:58:23.520Z,65.88
2022-10-04T02:58:56.981Z,65.57
2022-10-04T02:59:33.553Z,66.93
2022-10-04T03:00:13.592Z,66.10
2022-10-04T03:00:47.656Z,66.85
2022-10-04T03:01:25.772Z,65.38
2022-10-04T03:01:59.405Z,69.68
2022-10-04T03:02:32.965Z,66.93
2022-10-04T03:03:15.922Z,66.78
2022-10-04T03:03:48.678Z,65.72
2022-10-04T03:04:23.187Z,68.13
2022-10-04T03:04:57.469Z,68.20
2022-10-04T03:05:29.152Z,67.72
2022-10-04T03:06:03.166Z,67.30
2022-10-04T03:06:35.869Z,68.40
2022-10-04T03:07:08.920Z,66.30
2022-10-04T03:07:40.804Z,66.10
2022-10-04T03:08:13.790Z,67.53
2022-10-04T03:08:46.985Z,67.65
2022-10-04T03:09:20.858Z,65.40
2022-10-04T03:09:54.064Z,68.18
2022-10-04T03:10:26.199Z,67.38
2022-10-04T03:11:00.280Z,67.65
2022-10-04T03:11:34.615Z,65.50
2022-10-04T03:12:06.529Z,66.90
2022-10-04T03:12:39.496Z,66.50
2022-10-04T03:13:12.854Z,68.60
2022-10-04T03:13:46.484Z,68.40
2022-10-04T03:14:20.915Z,67.90
2022-10-04T03:14:53.055Z,68.53
2022-10-04T03:15:24.862Z,67.80
2022-10-04T03:15:57.547Z,67.50
2022-10-04T03:16:34.233Z,69.05
2022-10-04T03:17:06.301Z,67.38
2022-10-04T03:17:41.261Z,68.07
2022-10-04T03:18:13.882Z,67.90
2022-10-04T03:18:45.944Z,69.47
2022-10-04T03:19:19.886Z,67.35
2022-10-04T03:19:51.912Z,66.78
2022-10-04T03:20:23.544Z,68.38
2022-10-04T03:20:56.609Z,68.32
2022-10-04T03:21:28.271Z,68.65
2022-10-04T03:22:02.519Z,68.03
2022-10-04T03:22:35.116Z,67.22
2022-10-04T03:23:07.589Z,68.07
2022-10-04T03:23:39.697Z,67.65
2022-10-04T03:24:16.332Z,67.32
2022-10-04T03:24:49.561Z,68.88
2022-10-04T03:25:26.268Z,70.28
2022-10-04T03:26:03.744Z,67.38
2022-10-04T03:26:41.439Z,68.47
2022-10-04T03:27:16.076Z,69.90
2022-10-04T03:27:47.970Z,68.03
2022-10-04T03:28:20.003Z,69.18
2022-10-04T03:28:52.742Z,68.45
2022-10-04T03:29:27.251Z,72.00
2022-10-04T03:29:59.515Z,70.03
2022-10-04T03:30:32.883Z,68.50
2022-10-04T03:31:04.774Z,70.20
2022-10-04T03:31:40.289Z,70.45
2022-10-04T03:32:14.969Z,70.43
2022-10-04T03:32:46.906Z,70.47
2022-10-04T03:33:19.974Z,70.22
2022-10-04T03:33:52.642Z,69.07
2022-10-04T03:34:25.779Z,68.57
2022-10-04T03:34:58.269Z,68.38
2022-10-04T03:35:33.587Z,68.80
2022-10-04T03:36:05.381Z,68.60
2022-10-04T03:36:38.063Z,68.22
2022-10-04T03:37:12.399Z,70.53
2022-10-04T03:37:44.081Z,69.55
2022-10-04T03:38:17.970Z,70.90
2022-10-04T03:38:51.288Z,70.80
2022-10-04T03:39:27.336Z,70.50
2022-10-04T03:40:00.654Z,70.75
2022-10-04T03:40:34.288Z,70.03
2022-10-04T03:41:06.519Z,70.65
2022-10-04T03:41:38.571Z,68.90
2022-10-04T03:42:13.119Z,69.63
2022-10-04T03:42:47.024Z,69.75
2022-10-04T03:43:19.715Z,70.15
2022-10-04T03:43:53.023Z,70.63
2022-10-04T03:44:25.382Z,69.75
2022-10-04T03:45:00.172Z,71.10
2022-10-04T03:45:34.409Z,70.10
2022-10-04T03:46:07.795Z,71.75
2022-10-04T03:46:39.588Z,71.75
2022-10-04T03:47:13.563Z,70.43
2022-10-04T03:47:46.776Z,69.90
2022-10-04T03:48:25.989Z,70.53
2022-10-04T03:48:58.915Z,71.53
2022-10-04T03:49:32.894Z,69.75
2022-10-04T03:50:07.752Z,70.82
2022-10-04T03:50:42.878Z,70.55
2022-10-04T03:51:16.893Z,71.35
2022-10-04T03:51:49.769Z,69.93
2022-10-04T03:52:25.109Z,68.85
2022-10-04T03:52:57.677Z,69.25
2022-10-04T03:53:35.380Z,71.40
2022-10-04T03:54:08.605Z,70.15
2022-10-04T03:54:40.555Z,72.15
2022-10-04T03:55:14.969Z,72.28
2022-10-04T03:55:49.149Z,69.50
2022-10-04T03:56:22.390Z,71.10
2022-10-04T03:56:54.778Z,70.78
2022-10-04T03:57:26.422Z,68.85
2022-10-04T03:58:00.055Z,69.88
2022-10-04T03:58:31.827Z,70.47
2022-10-04T03:59:04.244Z,70.22
2022-10-04T03:59:37.521Z,70.07
2022-10-04T04:00:09.539Z,68.55
2022-10-04T04:00:56.592Z,70.35
2022-10-04T04:01:35.372Z,68.32
2022-10-04T04:02:11.257Z,69.95
2022-10-04T04:02:46.163Z,69.35
2022-10-04T04:03:21.565Z,70.20
2022-10-04T04:04:00.274Z,69.20
2022-10-04T04:04:36.801Z,70.05
2022-10-04T04:05:12.459Z,68.32
2022-10-04T04:05:47.475Z,69.63
2022-10-04T04:06:22.049Z,70.13
2022-10-04T04:07:00.126Z,68.18
2022-10-04T04:07:36.238Z,70.20
2022-10-04T04:08:12.236Z,69.38
2022-10-04T04:08:44.986Z,69.22
2022-10-04T04:09:21.109Z,70.00
2022-10-04T04:09:53.858Z,70.68
2022-10-04T04:10:27.286Z,70.38
2022-10-04T04:11:04.036Z,69.22
2022-10-04T04:11:36.213Z,69.32
2022-10-04T04:12:11.053Z,68.60
2022-10-04T04:12:47.867Z,69.80
2022-10-04T04:13:22.821Z,68.32
2022-10-04T04:13:59.053Z,69.50
2022-10-04T04:14:31.711Z,69.55
2022-10-04T04:15:04.323Z,69.55
2022-10-04T04:15:36.005Z,69.15
2022-10-04T04:16:09.606Z,71.20
2022-10-04T04:16:42.514Z,68.65
2022-10-04T04:17:18.701Z,68.10
2022-10-04T04:17:52.435Z,70.60
2022-10-04T04:18:25.339Z,70.43
2022-10-04T04:19:00.781Z,68.57
2022-10-04T04:19:33.587Z,71.05
2022-10-04T04:20:07.989Z,69.00
2022-10-04T04:20:42.238Z,69.85
2022-10-04T04:21:17.007Z,68.90
2022-10-04T04:21:49.945Z,69.20
2022-10-04T04:22:22.674Z,69.22
2022-10-04T04:22:59.203Z,69.78
2022-10-04T04:23:33.198Z,69.63
2022-10-04T04:24:06.758Z,69.13
2022-10-04T04:24:38.627Z,67.53
2022-10-04T04:25:13.840Z,69.72
2022-10-04T04:25:47.169Z,70.20
2022-10-04T04:26:23.720Z,67.60
2022-10-04T04:26:58.573Z,69.13
2022-10-04T04:27:32.047Z,68.95
2022-10-04T04:28:07.646Z,70.50
2022-10-04T04:28:44.413Z,69.35
2022-10-04T04:29:18.473Z,69.13
2022-10-04T04:29:52.690Z,69.78
2022-10-04T04:30:24.395Z,69.72
2022-10-04T04:30:58.164Z,69.68
2022-10-04T04:31:31.935Z,70.60
2022-10-04T04:32:07.126Z,70.25
2022-10-04T04:32:40.285Z,68.93
2022-10-04T04:33:21.164Z,69.93
2022-10-04T04:34:00.410Z,69.63
2022-10-04T04:34:33.025Z,69.78
2022-10-04T04:35:08.289Z,69.45
2022-10-04T04:35:40.935Z,69.00
2022-10-04T04:36:14.418Z,71.15
2022-10-04T04:36:46.328Z,69.15
2022-10-04T04:37:18.938Z,69.63
2022-10-04T04:38:04.507Z,70.70
2022-10-04T04:38:36.285Z,68.40
2022-10-04T04:39:27.398Z,69.57
2022-10-04T04:40:12.201Z,68.80
2022-10-04T04:40:44.171Z,69.55
2022-10-04T04:41:15.883Z,69.72
2022-10-04T04:41:50.875Z,69.60
2022-10-04T04:42:25.116Z,70.13
2022-10-04T04:42:58.115Z,69.28
2022-10-04T04:43:30.939Z,70.40
2022-10-04T04:44:03.351Z,69.50
2022-10-04T04:44:35.363Z,70.40
2022-10-04T04:45:18.405Z,70.03
2022-10-04T04:46:08.582Z,69.65
2022-10-04T04:46:44.642Z,68.80
2022-10-04T04:47:25.663Z,70.38
2022-10-04T04:47:57.953Z,70.95
2022-10-04T04:48:32.016Z,71.00
2022-10-04T04:49:04.441Z,69.95
2022-10-04T04:49:39.822Z,68.25
2022-10-04T04:50:15.258Z,69.57
2022-10-04T04:50:49.703Z,70.78
2022-10-04T04:51:22.738Z,69.05
2022-10-04T04:51:56.619Z,68.30
2022-10-04T04:52:29.264Z,71.18
2022-10-04T04:53:04.849Z,69.90
2022-10-04T04:53:37.414Z,69.45
2022-10-04T04:54:09.090Z,69.53
2022-10-04T04:54:40.718Z,68.32
2022-10-04T04:55:18.563Z,70.10
2022-10-04T04:56:05.555Z,70.35
2022-10-04T04:56:38.511Z,69.03
2022-10-04T04:57:14.702Z,70.30
2022-10-04T04:57:47.729Z,70.25
2022-10-04T04:58:22.067Z,70.75
2022-10-04T04:58:55.884Z,70.53
2022-10-04T04:59:28.057Z,70.30
2022-10-04T05:00:02.183Z,69.47
2022-10-04T05:00:35.496Z,68.25
2022-10-04T05:01:09.261Z,68.78
2022-10-04T05:01:44.543Z,68.82
2022-10-04T05:02:35.036Z,69.40
2022-10-04T05:03:08.862Z,68.80
2022-10-04T05:03:40.783Z,68.93
2022-10-04T05:04:17.398Z,68.72
2022-10-04T05:04:50.462Z,70.03
2022-10-04T05:05:23.849Z,68.80
2022-10-04T05:05:57.599Z,68.03
2022-10-04T05:06:32.553Z,70.07
2022-10-04T05:07:05.363Z,68.82
2022-10-04T05:07:37.040Z,69.60
2022-10-04T05:08:14.966Z,68.90
2022-10-04T05:08:52.468Z,69.45
2022-10-04T05:09:25.839Z,69.28
2022-10-04T05:09:57.460Z,69.65
2022-10-04T05:10:30.592Z,68.85
2022-10-04T05:11:06.555Z,69.68
2022-10-04T05:11:38.724Z,71.88
2022-10-04T05:12:16.904Z,69.32
2022-10-04T05:12:48.943Z,69.75
2022-10-04T05:13:20.788Z,68.93
2022-10-04T05:13:54.696Z,69.72
2022-10-04T05:14:26.314Z,68.45
2022-10-04T05:14:57.999Z,69.15
2022-10-04T05:15:33.936Z,69.32
2022-10-04T05:16:10.076Z,70.05
2022-10-04T05:16:44.313Z,69.18
2022-10-04T05:17:18.828Z,68.00
2022-10-04T05:17:50.510Z,70.43
2022-10-04T05:18:28.273Z,70.80
2022-10-04T05:19:01.984Z,68.38
2022-10-04T05:19:36.124Z,67.78
2022-10-04T05:20:07.803Z,69.50
2022-10-04T05:20:39.472Z,69.55
2022-10-04T05:21:14.893Z,70.13
2022-10-04T05:21:47.233Z,68.70
2022-10-04T05:22:20.884Z,68.65
2022-10-04T05:22:53.736Z,69.82
2022-10-04T05:23:25.937Z,69.78
2022-10-04T05:24:00.234Z,69.15
2022-10-04T05:24:32.696Z,69.00
2022-10-04T05:25:07.833Z,67.75
2022-10-04T05:25:39.892Z,70.05
2022-10-04T05:26:12.552Z,69.05
2022-10-04T05:26:45.312Z,69.82
2022-10-04T05:27:25.250Z,69.60
2022-10-04T05:27:57.094Z,69.68
2022-10-04T05:28:30.117Z,69.65
2022-10-04T05:29:08.191Z,69.28
2022-10-04T05:29:42.841Z,70.97
2022-10-04T05:30:20.370Z,69.05
2022-10-04T05:31:00.561Z,70.90
2022-10-04T05:31:38.030Z,70.75
2022-10-04T05:32:15.875Z,69.53
2022-10-04T05:32:53.860Z,70.07
2022-10-04T05:33:30.632Z,69.63
2022-10-04T05:34:16.665Z,70.47
2022-10-04T05:34:49.289Z,67.60
2022-10-04T05:35:23.683Z,69.47
2022-10-04T05:36:02.474Z,70.85
2022-10-04T05:36:53.845Z,69.45
2022-10-04T05:37:33.353Z,69.82
2022-10-04T05:38:09.146Z,69.57
2022-10-04T05:38:44.800Z,71.40
2022-10-04T05:39:21.980Z,71.15
2022-10-04T05:40:02.066Z,71.05
2022-10-04T05:40:41.897Z,69.82
2022-10-04T05:41:18.067Z,70.65
2022-10-04T05:41:55.259Z,69.70
2022-10-04T05:42:32.915Z,71.20
2022-10-04T05:43:22.303Z,71.07
2022-10-04T05:43:54.559Z,71.57
2022-10-04T05:44:27.087Z,70.57
2022-10-04T05:44:59.919Z,69.85
2022-10-04T05:45:31.979Z,70.38
2022-10-04T05:46:15.756Z,70.38
2022-10-04T05:46:48.506Z,71.57
2022-10-04T05:47:23.990Z,70.60
2022-10-04T05:47:57.733Z,69.93
2022-10-04T05:48:30.044Z,70.85
2022-10-04T05:49:06.380Z,71.50
2022-10-04T05:49:43.977Z,70.30
2022-10-04T05:50:19.311Z,70.88
2022-10-04T05:50:51.151Z,70.75
2022-10-04T05:51:25.213Z,69.28
2022-10-04T05:52:00.149Z,71.03
2022-10-04T05:52:33.593Z,72.18
2022-10-04T05:53:19.792Z,69.43
2022-10-04T05:53:52.438Z,71.75
2022-10-04T05:54:27.341Z,70.23
2022-10-04T05:55:19.164Z,70.82
2022-10-04T05:55:56.689Z,73.18
2022-10-04T05:56:46.200Z,71.15
2022-10-04T05:57:28.709Z,69.60
2022-10-04T05:58:18.240Z,71.60
2022-10-04T05:58:56.908Z,71.82
2022-10-04T05:59:36.757Z,70.68
2022-10-04T06:00:15.384Z,72.45
2022-10-04T06:01:00.192Z,70.72
2022-10-04T06:01:38.079Z,70.13
2022-10-04T06:02:17.311Z,70.70
2022-10-04T06:03:03.904Z,70.68
2022-10-04T06:03:42.558Z,71.75
2022-10-04T06:04:24.000Z,70.88
2022-10-04T06:05:06.652Z,71.18
2022-10-04T06:05:45.493Z,70.45
2022-10-04T06:06:24.056Z,71.47
2022-10-04T06:07:01.178Z,72.55
2022-10-04T06:07:43.286Z,72.00
2022-10-04T06:08:25.110Z,69.65
2022-10-04T06:09:05.354Z,72.30
2022-10-04T06:09:45.081Z,72.80
2022-10-04T06:10:29.892Z,72.63
2022-10-04T06:11:05.452Z,72.10
2022-10-04T06:11:44.332Z,72.45
2022-10-04T06:12:26.412Z,72.30
2022-10-04T06:13:01.069Z,72.47
2022-10-04T06:13:52.180Z,71.57
2022-10-04T06:14:39.685Z,72.68
2022-10-04T06:15:41.188Z,72.97
2022-10-04T06:16:20.398Z,73.93
2022-10-04T06:17:00.046Z,72.88
2022-10-04T06:17:38.588Z,71.90
2022-10-04T06:18:23.175Z,72.15
2022-10-04T06:19:13.244Z,73.35
2022-10-04T06:20:04.482Z,74.88
2022-10-04T06:20:44.802Z,74.78
2022-10-04T06:21:20.244Z,74.85
2022-10-04T06:22:07.878Z,73.57
2022-10-04T06:22:43.881Z,72.95
2022-10-04T06:23:16.730Z,74.60
2022-10-04T06:23:54.492Z,73.47
2022-10-04T06:24:27.524Z,74.55
2022-10-04T06:25:01.656Z,75.20
2022-10-04T06:25:38.239Z,72.63
2022-10-04T06:26:12.836Z,75.72
2022-10-04T06:26:51.497Z,76.25
2022-10-04T06:27:28.620Z,76.32
2022-10-04T06:28:05.503Z,75.82
2022-10-04T06:28:39.361Z,74.25
2022-10-04T06:29:15.459Z,76.65
2022-10-04T06:29:49.919Z,73.90
2022-10-04T06:30:22.972Z,75.38
2022-10-04T06:31:04.444Z,74.57
2022-10-04T06:32:04.427Z,75.20
2022-10-04T06:32:52.991Z,77.00
2022-10-04T06:33:36.304Z,74.38
2022-10-04T06:34:26.497Z,76.00
2022-10-04T06:35:08.277Z,76.25
2022-10-04T06:35:58.538Z,76.63
2022-10-04T06:36:38.670Z,75.85
2022-10-04T06:37:15.742Z,75.40
2022-10-04T06:37:57.249Z,76.05
2022-10-04T06:38:41.300Z,75.40
2022-10-04T06:39:24.643Z,76.47
2022-10-04T06:40:11.400Z,77.60
2022-10-04T06:40:54.389Z,78.00
2022-10-04T06:41:31.841Z,76.97
2022-10-04T06:42:18.490Z,75.88
2022-10-04T06:43:02.508Z,77.75
2022-10-04T06:43:42.260Z,77.72
2022-10-04T06:44:24.263Z,76.35
2022-10-04T06:45:06.237Z,77.32
2022-10-04T06:45:44.572Z,77.28
2022-10-04T06:46:18.303Z,75.80
2022-10-04T06:46:52.187Z,76.70
2022-10-04T06:47:35.521Z,76.90
2022-10-04T06:48:24.457Z,76.72
2022-10-04T06:49:15.473Z,75.72
2022-10-04T06:49:49.276Z,77.88
2022-10-04T06:50:27.431Z,75.80
2022-10-04T06:51:03.576Z,77.45
2022-10-04T06:51:43.209Z,76.10
2022-10-04T06:52:36.599Z,75.55
2022-10-04T06:53:15.523Z,75.88
2022-10-04T06:53:54.910Z,74.93
2022-10-04T06:54:32.487Z,75.68
2022-10-04T06:55:18.350Z,75.82
2022-10-04T06:56:07.144Z,75.13
2022-10-04T06:56:48.373Z,73.25
2022-10-04T06:57:31.575Z,75.03
2022-10-04T06:58:13.820Z,74.65
2022-10-04T06:58:57.736Z,72.50
2022-10-04T06:59:36.272Z,74.13
2022-10-04T07:00:09.738Z,73.90
2022-10-04T07:00:49.377Z,73.15
2022-10-04T07:01:27.210Z,74.28
2022-10-04T07:02:01.515Z,75.20
2022-10-04T07:02:36.042Z,71.18
2022-10-04T07:03:13.447Z,74.20
2022-10-04T07:03:51.361Z,73.75
2022-10-04T07:04:49.992Z,74.20
2022-10-04T07:05:30.556Z,73.05
2022-10-04T07:06:04.936Z,74.53
2022-10-04T07:06:38.195Z,75.28
2022-10-04T07:07:35.377Z,74.03
2022-10-04T07:08:12.437Z,72.97
2022-10-04T07:08:47.986Z,72.88
2022-10-04T07:09:23.382Z,72.85
2022-10-04T07:10:01.623Z,73.68
2022-10-04T07:10:37.785Z,72.75
2022-10-04T07:11:14.251Z,72.28
2022-10-04T07:11:50.419Z,71.97
2022-10-04T07:12:22.697Z,71.35
2022-10-04T07:12:59.722Z,70.93
2022-10-04T07:13:35.905Z,70.68
2022-10-04T07:14:12.340Z,72.03
2022-10-04T07:14:46.662Z,71.78
2022-10-04T07:15:21.399Z,72.70
2022-10-04T07:15:56.875Z,72.30
2022-10-04T07:16:34.934Z,72.32
2022-10-04T07:17:12.540Z,73.97
2022-10-04T07:17:45.870Z,70.57
2022-10-04T07:18:22.188Z,71.97
2022-10-04T07:18:58.543Z,71.90
2022-10-04T07:19:33.855Z,73.47
2022-10-04T07:20:07.616Z,73.50
2022-10-04T07:20:39.691Z,72.38
2022-10-04T07:21:12.873Z,72.18
2022-10-04T07:21:50.064Z,74.55
2022-10-04T07:22:26.243Z,72.63
2022-10-04T07:22:59.583Z,71.82
2022-10-04T07:23:34.044Z,71.60
2022-10-04T07:24:09.733Z,72.85
2022-10-04T07:25:09.451Z,72.07
2022-10-04T07:25:44.212Z,71.10
2022-10-04T07:26:20.010Z,72.57
2022-10-04T07:26:53.984Z,72.50
2022-10-04T07:27:29.740Z,70.78
2022-10-04T07:28:23.158Z,72.32
2022-10-04T07:29:16.866Z,74.05
2022-10-04T07:29:55.802Z,73.28
2022-10-04T07:30:36.425Z,71.78
2022-10-04T07:31:11.447Z,75.78
2022-10-04T07:31:46.719Z,73.13
2022-10-04T07:32:21.706Z,72.28
2022-10-04T07:32:58.312Z,72.38
2022-10-04T07:33:31.493Z,74.20
2022-10-04T07:34:09.622Z,72.47
2022-10-04T07:34:45.700Z,73.38
2022-10-04T07:35:21.871Z,73.80
2022-10-04T07:35:55.900Z,74.47
2022-10-04T07:36:30.496Z,73.30
2022-10-04T07:37:07.314Z,71.22
2022-10-04T07:37:48.145Z,73.95
2022-10-04T07:38:24.066Z,72.95
2022-10-04T07:39:00.203Z,72.32
2022-10-04T07:39:34.893Z,73.03
2022-10-04T07:40:08.674Z,73.45
2022-10-04T07:40:41.521Z,72.90
2022-10-04T07:41:15.440Z,73.30
2022-10-04T07:41:52.093Z,72.65
2022-10-04T07:42:27.808Z,72.82
2022-10-04T07:43:04.802Z,72.03
2022-10-04T07:43:40.874Z,73.18
2022-10-04T07:44:16.093Z,72.70
2022-10-04T07:44:54.916Z,73.47
2022-10-04T07:45:32.703Z,72.40
2022-10-04T07:46:06.379Z,71.80